createdAt,value
2019-03-16T00:03:08.815Z,2.53
2019-03-16T00:08:12.281Z,2.97
2019-03-16T00:13:16.283Z,3.97
2019-03-16T00:18:20.266Z,3.27
2019-03-16T00:23:23.698Z,3.50
2019-03-16T00:28:27.141Z,2.00
2019-03-16T00:33:30.573Z,2.80
2019-03-16T00:38:34.007Z,2.73
2019-03-16T00:43:37.857Z,2.00
2019-03-16T00:48:41.273Z,2.00
2019-03-16T00:53:45.711Z,2.47
2019-03-16T00:58:49.133Z,1.73
2019-03-16T01:03:52.556Z,2.73
2019-03-16T01:08:55.982Z,1.97
2019-03-16T01:13:59.447Z,2.13
2019-03-16T01:19:03.203Z,2.00
2019-03-16T01:24:06.655Z,3.17
2019-03-16T01:29:10.197Z,2.07
2019-03-16T01:34:13.976Z,2.80
2019-03-16T01:39:17.762Z,1.90
2019-03-16T01:44:21.192Z,2.00
2019-03-16T01:49:24.806Z,2.40
2019-03-16T01:54:28.278Z,1.63
2019-03-16T01:59:31.733Z,4.47
2019-03-16T02:04:35.203Z,2.70
2019-03-16T02:09:38.745Z,2.50
2019-03-16T02:14:42.224Z,1.57
2019-03-16T02:19:45.632Z,2.53
2019-03-16T02:24:49.122Z,1.33
2019-03-16T02:29:52.982Z,2.30
2019-03-16T02:34:56.404Z,2.57
2019-03-16T02:39:59.842Z,2.97
2019-03-16T02:45:03.536Z,2.97
2019-03-16T02:50:11.866Z,3.63
2019-03-16T02:55:15.278Z,2.67
2019-03-16T03:00:18.725Z,3.13
2019-03-16T03:05:22.161Z,2.87
2019-03-16T03:10:25.685Z,2.27
2019-03-16T03:15:29.115Z,1.93
2019-03-16T03:20:32.557Z,2.40
2019-03-16T03:25:35.983Z,2.97
2019-03-16T03:30:39.412Z,2.60
2019-03-16T03:35:42.835Z,3.43
2019-03-16T03:40:46.272Z,3.07
2019-03-16T03:45:49.806Z,3.60
2019-03-16T03:50:53.324Z,2.23
2019-03-16T03:55:56.833Z,3.33
2019-03-16T04:01:00.392Z,3.13
2019-03-16T04:06:03.910Z,2.80
2019-03-16T04:11:07.429Z,2.80
2019-03-16T04:16:10.861Z,3.53
2019-03-16T04:21:14.464Z,3.47
2019-03-16T04:26:17.900Z,3.37
2019-03-16T04:31:21.323Z,2.60
2019-03-16T04:36:24.754Z,2.40
2019-03-16T04:41:28.183Z,2.07
2019-03-16T04:46:31.641Z,2.50
2019-03-16T04:51:35.046Z,3.87
2019-03-16T04:56:38.475Z,1.80
2019-03-16T05:01:41.913Z,2.00
2019-03-16T05:06:45.333Z,1.93
2019-03-16T05:11:48.765Z,1.83
2019-03-16T05:16:52.209Z,1.77
2019-03-16T05:21:55.647Z,2.43
2019-03-16T05:26:59.071Z,1.40
2019-03-16T05:32:02.508Z,2.17
2019-03-16T05:37:05.993Z,2.50
2019-03-16T05:42:09.425Z,1.57
2019-03-16T05:47:12.863Z,3.07
2019-03-16T05:52:16.313Z,1.80
2019-03-16T05:57:19.732Z,2.73
2019-03-16T06:02:23.359Z,1.87
2019-03-16T06:07:26.811Z,2.13
2019-03-16T06:12:30.236Z,3.07
2019-03-16T06:17:33.688Z,2.00
2019-03-16T06:22:37.123Z,1.90
2019-03-16T06:27:40.550Z,1.60
2019-03-16T06:32:43.977Z,2.20
2019-03-16T06:37:47.440Z,1.83
2019-03-16T06:42:50.871Z,3.03
2019-03-16T06:47:54.906Z,2.50
2019-03-16T06:52:58.438Z,1.67
2019-03-16T06:58:01.875Z,1.97
2019-03-16T07:03:05.312Z,2.00
2019-03-16T07:08:08.759Z,1.53
2019-03-16T07:13:12.219Z,1.73
2019-03-16T07:18:15.661Z,3.00
2019-03-16T07:23:19.256Z,2.60
2019-03-16T07:28:22.818Z,2.40
2019-03-16T07:33:26.249Z,2.90
2019-03-16T07:38:29.677Z,2.27
2019-03-16T07:43:33.099Z,2.13
2019-03-16T07:48:36.530Z,3.23
2019-03-16T07:53:39.971Z,3.23
2019-03-16T07:58:43.392Z,3.90
2019-03-16T08:03:46.838Z,4.57
2019-03-16T08:08:53.753Z,5.87
2019-03-16T08:13:57.195Z,6.53
2019-03-16T08:19:00.641Z,7.40
2019-03-16T08:24:04.246Z,8.97
2019-03-16T08:29:07.683Z,9.23
2019-03-16T08:34:11.133Z,9.60
2019-03-16T08:39:14.709Z,9.77
2019-03-16T08:44:18.168Z,7.97
2019-03-16T08:49:21.670Z,7.23
2019-03-16T08:54:25.127Z,6.20
2019-03-16T08:59:28.530Z,7.10
2019-03-16T09:04:31.931Z,6.43
2019-03-16T09:09:35.345Z,4.87
2019-03-16T09:14:38.772Z,4.97
2019-03-16T09:19:42.208Z,5.50
2019-03-16T09:24:45.649Z,6.03
2019-03-16T09:29:49.079Z,8.03
2019-03-16T09:34:52.494Z,7.43
2019-03-16T09:39:55.946Z,10.67
2019-03-16T09:44:59.418Z,10.07
2019-03-16T09:50:02.867Z,10.13
2019-03-16T09:55:08.720Z,10.60
2019-03-16T10:00:14.203Z,9.03
2019-03-16T10:05:17.774Z,10.50
2019-03-16T10:10:21.211Z,9.90
2019-03-16T10:15:24.677Z,9.03
2019-03-16T10:20:28.157Z,8.57
2019-03-16T10:25:31.600Z,8.57
2019-03-16T10:30:35.065Z,8.53
2019-03-16T10:35:38.483Z,7.30
2019-03-16T10:40:41.918Z,7.37
2019-03-16T10:45:45.341Z,7.80
2019-03-16T10:50:48.776Z,6.67
2019-03-16T10:55:52.211Z,8.23
2019-03-16T11:00:55.641Z,7.23
2019-03-16T11:05:59.068Z,5.97
2019-03-16T11:11:02.509Z,6.93
2019-03-16T11:16:05.942Z,5.47
2019-03-16T11:21:09.389Z,5.83
2019-03-16T11:26:12.846Z,4.53
2019-03-16T11:31:16.296Z,5.27
2019-03-16T11:36:19.722Z,5.53
2019-03-16T11:41:23.167Z,6.07
2019-03-16T11:46:27.298Z,5.23
2019-03-16T11:51:30.746Z,5.53
2019-03-16T11:56:34.185Z,6.47
2019-03-16T12:01:37.613Z,5.20
2019-03-16T12:06:41.037Z,5.67
2019-03-16T12:11:44.554Z,5.07
2019-03-16T12:16:48.004Z,4.30
2019-03-16T12:21:51.439Z,5.10
2019-03-16T12:26:54.870Z,4.40
2019-03-16T12:31:58.318Z,4.97
2019-03-16T12:37:01.751Z,3.53
2019-03-16T12:42:05.234Z,3.97
2019-03-16T12:47:08.912Z,4.43
2019-03-16T12:52:12.751Z,4.70
2019-03-16T12:57:16.178Z,5.23
2019-03-16T13:02:19.619Z,4.87
2019-03-16T13:07:23.048Z,5.13
2019-03-16T13:12:26.661Z,4.60
2019-03-16T13:17:30.078Z,5.77
2019-03-16T13:22:33.692Z,3.97
2019-03-16T13:27:37.134Z,7.80
2019-03-16T13:32:40.571Z,2.77
2019-03-16T13:37:44.092Z,3.63
2019-03-16T13:42:47.602Z,5.03
2019-03-16T13:47:52.036Z,4.90
2019-03-16T13:52:56.160Z,4.37
2019-03-16T13:57:59.551Z,5.37
2019-03-16T14:03:02.971Z,4.03
2019-03-16T14:08:06.401Z,3.50
2019-03-16T14:13:10.074Z,4.20
2019-03-16T14:18:13.507Z,4.73
2019-03-16T14:23:16.928Z,3.60
2019-03-16T14:28:20.469Z,3.97
2019-03-16T14:33:23.883Z,4.13
2019-03-16T14:38:27.318Z,3.90
2019-03-16T14:43:30.743Z,3.90
2019-03-16T14:48:34.179Z,3.73
2019-03-16T14:53:37.597Z,3.40
2019-03-16T14:58:41.051Z,4.37
2019-03-16T15:03:44.476Z,3.07
2019-03-16T15:08:47.903Z,3.43
2019-03-16T15:13:51.335Z,3.77
2019-03-16T15:18:54.792Z,4.07
2019-03-16T15:23:58.219Z,2.80
2019-03-16T15:29:01.643Z,2.37
2019-03-16T15:34:05.125Z,2.40
2019-03-16T15:39:08.556Z,2.70
2019-03-16T15:44:11.990Z,1.80
2019-03-16T15:49:15.421Z,2.17
2019-03-16T15:54:18.920Z,2.13
2019-03-16T15:59:22.357Z,2.63
2019-03-16T16:04:25.806Z,3.03
2019-03-16T16:09:29.219Z,2.53
2019-03-16T16:14:32.720Z,2.40
2019-03-16T16:19:36.159Z,2.43
2019-03-16T16:24:39.549Z,2.73
2019-03-16T16:29:42.965Z,2.97
2019-03-16T16:34:46.366Z,2.50
2019-03-16T16:39:49.815Z,2.40
2019-03-16T16:44:53.239Z,2.60
2019-03-16T16:49:56.655Z,1.67
2019-03-16T16:55:00.080Z,2.03
2019-03-16T17:00:05.777Z,2.67
2019-03-16T17:05:09.218Z,4.63
2019-03-16T17:10:17.359Z,2.00
2019-03-16T17:15:22.220Z,2.30
2019-03-16T17:20:25.654Z,2.17
2019-03-16T17:25:29.079Z,4.00
2019-03-16T17:30:34.343Z,3.23
2019-03-16T17:35:38.063Z,3.67
2019-03-16T17:40:41.551Z,2.80
2019-03-16T17:45:44.959Z,5.17
2019-03-16T17:50:48.377Z,2.13
2019-03-16T17:55:51.791Z,3.10
2019-03-16T18:00:55.237Z,6.07
2019-03-16T18:05:58.653Z,1.90
2019-03-16T18:11:02.084Z,1.63
2019-03-16T18:16:05.666Z,2.13
2019-03-16T18:21:09.120Z,2.27
2019-03-16T18:26:12.574Z,2.63
2019-03-16T18:31:15.978Z,2.10
2019-03-16T18:36:19.425Z,1.67
2019-03-16T18:41:22.855Z,1.70
2019-03-16T18:46:26.384Z,2.07
2019-03-16T18:51:29.820Z,2.17
2019-03-16T18:56:33.294Z,1.70
2019-03-16T19:01:36.727Z,2.17
2019-03-16T19:06:40.164Z,2.10
2019-03-16T19:11:43.597Z,2.00
2019-03-16T19:16:47.024Z,3.03
2019-03-16T19:21:50.532Z,2.17
2019-03-16T19:26:53.962Z,1.77
2019-03-16T19:31:57.429Z,2.20
2019-03-16T19:37:00.841Z,3.07
2019-03-16T19:42:04.267Z,2.57
2019-03-16T19:47:07.699Z,3.43
2019-03-16T19:52:11.120Z,4.10
2019-03-16T19:57:16.115Z,6.27
2019-03-16T20:02:19.778Z,6.03
2019-03-16T20:07:26.412Z,3.23
2019-03-16T20:12:29.867Z,3.20
2019-03-16T20:17:33.378Z,4.00
2019-03-16T20:22:36.743Z,5.93
2019-03-16T20:27:40.230Z,4.80
2019-03-16T20:32:43.757Z,3.90
2019-03-16T20:37:51.505Z,3.93
2019-03-16T20:42:55.895Z,3.13
2019-03-16T20:47:59.803Z,3.40
2019-03-16T20:53:03.242Z,5.10
2019-03-16T20:58:06.700Z,3.87
2019-03-16T21:03:16.117Z,3.43
2019-03-16T21:08:15.319Z,2.97
2019-03-16T21:13:19.631Z,3.77
2019-03-16T21:18:23.091Z,3.60
2019-03-16T21:23:27.405Z,3.37
2019-03-16T21:28:31.456Z,3.10
2019-03-16T21:33:35.919Z,3.23
2019-03-16T21:38:40.064Z,3.57
2019-03-16T21:43:44.273Z,3.87
2019-03-16T21:48:47.781Z,3.23
2019-03-16T21:53:51.208Z,3.50
2019-03-16T21:58:54.647Z,3.03
2019-03-16T22:03:58.134Z,3.00
2019-03-16T22:09:01.626Z,2.87
2019-03-16T22:14:05.236Z,2.60
2019-03-16T22:19:08.668Z,3.77
2019-03-16T22:24:12.087Z,3.23
2019-03-16T22:29:15.502Z,3.93
2019-03-16T22:34:18.956Z,2.67
2019-03-16T22:39:22.376Z,3.33
2019-03-16T22:44:25.817Z,2.83
2019-03-16T22:49:29.248Z,4.23
2019-03-16T22:54:32.665Z,3.30
2019-03-16T22:59:36.089Z,3.07
2019-03-16T23:04:39.525Z,3.77
2019-03-16T23:09:42.945Z,3.03
2019-03-16T23:14:46.372Z,2.77
2019-03-16T23:19:49.901Z,3.43
2019-03-16T23:24:53.323Z,3.10
2019-03-16T23:29:56.772Z,2.43
2019-03-16T23:35:00.268Z,2.83
2019-03-16T23:40:05.509Z,2.60
2019-03-16T23:45:11.698Z,3.03
2019-03-16T23:50:15.806Z,2.57
2019-03-16T23:55:19.230Z,2.63
